Time;durP1;ratioP1;P1;durP2;ratioP2;P2;SDS_P1;SDS_P2;PMS_P1;PMS_P2;Temp;Humidity;BMP_temperature;BMP_pressure;BME280_temperature;BME280_humidity;BME280_pressure;Samples;Min_cycle;Max_cycle;Signal;HPM_P1;HPM_P2
2022/07/13 00:01:51;;;;;;;;;4.00;4.00;;;;;27.57;28.95;101327.31;5077690;27;45556;-79
2022/07/13 00:04:18;;;;;;;;;6.00;4.00;;;;;27.53;29.21;101330.38;5071347;28;45423;-80
2022/07/13 00:06:44;;;;;;;;;8.25;4.25;;;;;27.42;29.41;101312.25;5074191;27;45472;-78
2022/07/13 00:09:09;;;;;;;;;3.50;3.50;;;;;27.42;29.40;101329.41;5065416;28;45468;-79
2022/07/13 00:11:34;;;;;;;;;6.50;5.00;;;;;27.16;29.28;101289.88;5074322;28;45492;-80
2022/07/13 00:14:00;;;;;;;;;3.00;3.00;;;;;27.33;29.59;101323.84;5055874;27;46204;-80
2022/07/13 00:16:25;;;;;;;;;4.75;4.75;;;;;27.05;29.56;101288.03;5072686;28;45508;-80
2022/07/13 00:18:50;;;;;;;;;4.00;4.00;;;;;27.01;30.26;101287.41;5065568;28;45407;-79
2022/07/13 00:21:16;;;;;;;;;4.25;3.75;;;;;27.21;29.80;101334.66;5055478;28;45462;-80
2022/07/13 00:23:42;;;;;;;;;2.75;2.75;;;;;27.03;30.33;101300.84;5061456;28;46074;-79
2022/07/13 00:26:09;;;;;;;;;7.50;5.00;;;;;27.10;29.95;101313.81;5069477;27;45573;-79
2022/07/13 00:28:34;;;;;;;;;3.75;3.75;;;;;27.03;30.39;101309.84;5076186;27;45513;-80
2022/07/13 00:30:59;;;;;;;;;4.00;4.00;;;;;27.03;30.78;101315.25;5072842;28;45770;-79
2022/07/13 00:33:25;;;;;;;;;6.50;4.50;;;;;27.05;30.95;101326.00;5075166;27;46331;-78
2022/07/13 00:35:50;;;;;;;;;7.50;4.25;;;;;26.90;30.66;101300.94;5063919;28;45363;-80
2022/07/13 00:38:15;;;;;;;;;4.25;3.50;;;;;27.01;31.62;101325.38;5074522;28;45407;-79
2022/07/13 00:40:41;;;;;;;;;4.00;4.00;;;;;26.86;30.96;101304.84;5075964;28;45415;-79
2022/07/13 00:43:06;;;;;;;;;5.00;4.00;;;;;26.80;31.24;101291.78;5075692;27;45490;-78
2022/07/13 00:45:32;;;;;;;;;4.00;4.00;;;;;26.84;31.13;101304.13;5056177;27;45568;-80
2022/07/13 00:47:58;;;;;;;;;3.00;3.00;;;;;26.63;30.82;101266.81;5063564;28;45378;-80
2022/07/13 00:50:24;;;;;;;;;6.25;3.00;;;;;26.84;30.67;101313.09;5075897;28;45280;-78
2022/07/13 00:52:50;;;;;;;;;3.00;3.00;;;;;26.82;30.73;101314.22;5081051;27;45422;-80
2022/07/13 00:55:16;;;;;;;;;4.00;3.00;;;;;26.71;30.56;101296.94;5072075;28;45510;-80
2022/07/13 00:57:42;;;;;;;;;3.00;3.00;;;;;26.66;30.59;101296.44;5053865;28;45398;-80
2022/07/13 01:00:11;;;;;;;;;7.25;4.50;;;;;26.69;30.74;101307.03;5052933;28;45562;-79
2022/07/13 01:02:38;;;;;;;;;2.75;2.75;;;;;26.56;30.54;101288.09;5053577;28;46305;-80
2022/07/13 01:05:05;;;;;;;;;3.75;2.00;;;;;26.64;31.10;101300.22;5053018;28;45306;-80
2022/07/13 01:07:32;;;;;;;;;2.50;2.50;;;;;26.59;31.02;101300.56;5065135;28;45331;-79
2022/07/13 01:10:00;;;;;;;;;4.00;4.00;;;;;26.57;31.28;101307.94;5054368;28;45615;-78
2022/07/13 01:12:28;;;;;;;;;3.75;3.50;;;;;26.52;31.33;101302.84;5054566;28;45447;-79
2022/07/13 01:14:57;;;;;;;;;3.00;2.50;;;;;26.51;31.11;101301.16;5060339;28;45393;-79
2022/07/13 01:17:23;;;;;;;;;6.25;2.50;;;;;26.50;31.39;101303.97;5063358;28;45369;-78
2022/07/13 01:19:49;;;;;;;;;6.75;3.75;;;;;26.33;31.38;101273.59;5050146;28;45402;-79
2022/07/13 01:22:21;;;;;;;;;7.00;3.00;;;;;26.45;31.30;101300.72;5048962;28;46241;-80
2022/07/13 01:24:48;;;;;;;;;8.25;3.00;;;;;26.29;31.99;101280.22;5046720;28;45558;-79
2022/07/13 01:27:14;;;;;;;;;5.25;3.75;;;;;26.33;31.36;101299.81;5060422;28;45457;-80
2022/07/13 01:29:40;;;;;;;;;2.50;2.50;;;;;26.33;31.56;101303.41;5064164;28;45403;-80
2022/07/13 01:32:06;;;;;;;;;6.75;3.75;;;;;26.29;31.38;101296.47;5067484;28;46223;-80
2022/07/13 01:34:31;;;;;;;;;2.75;1.00;;;;;26.16;31.69;101279.41;5056174;28;45708;-80
2022/07/13 01:36:58;;;;;;;;;4.00;4.00;;;;;26.01;32.21;101267.88;5046004;28;45506;-79
2022/07/13 01:39:24;;;;;;;;;3.00;2.00;;;;;26.22;31.53;101301.50;5071682;27;45754;-80
2022/07/13 01:41:50;;;;;;;;;6.50;3.50;;;;;25.98;32.18;101259.94;5072551;28;46857;-79
2022/07/13 01:44:16;;;;;;;;;3.75;3.75;;;;;26.11;32.55;101287.03;5054355;28;45315;-77
2022/07/13 01:46:41;;;;;;;;;3.00;3.00;;;;;26.05;32.70;101280.22;5062613;28;45545;-79
2022/07/13 01:49:07;;;;;;;;;3.75;3.75;;;;;26.01;32.37;101285.00;5057899;28;45608;-80
2022/07/13 01:51:32;;;;;;;;;3.75;3.00;;;;;26.04;32.79;101292.91;5062520;28;45415;-80
2022/07/13 01:53:57;;;;;;;;;3.50;3.50;;;;;25.95;33.50;101284.56;5055198;28;45372;-80
2022/07/13 01:56:23;;;;;;;;;5.00;3.25;;;;;25.96;33.17;101295.25;5065519;27;45392;-79
2022/07/13 01:58:48;;;;;;;;;3.00;2.50;;;;;25.93;33.42;101294.63;5069044;28;46074;-79
2022/07/13 02:01:13;;;;;;;;;5.50;5.50;;;;;25.74;33.58;101262.66;5070317;28;46155;-79
2022/07/13 02:03:39;;;;;;;;;5.00;3.75;;;;;25.85;33.81;101284.38;5065478;27;45442;-78
2022/07/13 02:06:05;;;;;;;;;4.00;4.00;;;;;25.84;34.22;101288.94;5057787;28;45563;-78
2022/07/13 02:08:30;;;;;;;;;6.25;3.00;;;;;25.76;34.59;101282.34;5063626;28;45339;-81
2022/07/13 02:10:56;;;;;;;;;3.25;3.25;;;;;25.74;34.93;101279.75;5054595;28;45613;-79
2022/07/13 02:13:21;;;;;;;;;2.50;2.50;;;;;25.61;34.76;101268.94;5063909;28;45400;-79
2022/07/13 02:15:47;;;;;;;;;2.00;2.00;;;;;25.66;34.22;101283.03;5056608;27;45570;-79
2022/07/13 02:18:13;;;;;;;;;8.00;4.00;;;;;25.51;34.59;101263.34;5064656;28;45516;-78
2022/07/13 02:20:38;;;;;;;;;3.00;3.00;;;;;25.57;34.45;101275.56;5057159;28;46445;-79
2022/07/13 02:23:05;;;;;;;;;3.00;3.00;;;;;25.54;34.86;101278.50;5073961;27;45400;-80
2022/07/13 02:25:32;;;;;;;;;6.50;4.50;;;;;25.44;34.43;101253.09;5063269;27;45504;-80
2022/07/13 02:27:59;;;;;;;;;3.00;3.00;;;;;25.46;34.63;101265.53;5061137;27;45374;-79
2022/07/13 02:30:25;;;;;;;;;3.00;3.00;;;;;25.45;34.25;101262.94;5091862;27;47013;-80
2022/07/13 02:32:52;;;;;;;;;6.25;5.50;;;;;25.40;34.28;101254.28;5080110;27;45437;-80
2022/07/13 02:35:18;;;;;;;;;3.25;3.25;;;;;25.28;33.64;101235.22;5073432;27;45438;-80
2022/07/13 02:37:43;;;;;;;;;4.50;4.00;;;;;25.42;33.34;101257.75;5056625;28;45462;-79
2022/07/13 02:40:10;;;;;;;;;4.00;4.00;;;;;25.43;33.40;101264.88;5069307;28;46300;-80
2022/07/13 02:42:36;;;;;;;;;3.75;3.75;;;;;25.33;33.51;101245.75;5058679;28;45343;-79
2022/07/13 02:45:01;;;;;;;;;3.00;2.00;;;;;25.30;34.15;101245.97;5080229;28;45309;-79
2022/07/13 02:47:27;;;;;;;;;2.25;2.25;;;;;25.41;34.55;101267.69;5075483;27;45308;-78
2022/07/13 02:49:52;;;;;;;;;4.50;3.00;;;;;25.41;33.98;101266.84;5077333;27;45443;-79
2022/07/13 02:52:17;;;;;;;;;2.00;2.00;;;;;25.39;33.64;101264.25;5069684;28;45314;-79
2022/07/13 02:54:43;;;;;;;;;3.00;3.00;;;;;25.32;33.68;101255.69;5063129;28;45511;-80
2022/07/13 02:57:09;;;;;;;;;4.50;2.00;;;;;25.31;34.04;101245.84;5071846;28;45407;-79
2022/07/13 02:59:36;;;;;;;;;3.50;2.00;;;;;25.38;34.11;101257.09;5055281;28;46404;-79
2022/07/13 03:02:02;;;;;;;;;4.50;3.75;;;;;25.35;34.06;101262.72;5075486;28;45471;-80
2022/07/13 03:04:27;;;;;;;;;6.25;6.25;;;;;25.28;33.70;101254.16;5075382;27;45494;-78
2022/07/13 03:06:53;;;;;;;;;3.00;3.00;;;;;25.22;34.07;101251.00;5065756;28;45353;-79
2022/07/13 03:09:18;;;;;;;;;3.75;3.75;;;;;25.26;33.94;101258.78;5066936;27;45509;-78
2022/07/13 03:11:43;;;;;;;;;3.25;3.25;;;;;25.26;33.79;101258.78;5069814;28;45420;-79
2022/07/13 03:14:09;;;;;;;;;4.50;3.00;;;;;25.09;33.98;101235.66;5056689;28;45707;-80
2022/07/13 03:16:35;;;;;;;;;2.75;2.75;;;;;25.18;34.23;101247.66;5056792;28;45388;-79
2022/07/13 03:19:01;;;;;;;;;3.50;3.00;;;;;25.12;34.33;101246.25;5064353;28;46573;-78
2022/07/13 03:21:29;;;;;;;;;3.50;3.50;;;;;25.22;34.04;101262.72;5072818;28;45379;-81
2022/07/13 03:23:55;;;;;;;;;3.25;3.25;;;;;25.13;34.25;101250.69;5077162;27;45431;-79
2022/07/13 03:26:20;;;;;;;;;3.75;3.75;;;;;25.13;34.08;101257.97;5061982;27;45557;-79
2022/07/13 03:28:45;;;;;;;;;3.00;3.00;;;;;25.09;34.23;101253.72;5068438;28;46366;-79
2022/07/13 03:31:11;;;;;;;;;3.75;3.00;;;;;25.13;33.70;101257.97;5068251;28;45453;-79
2022/07/13 03:33:36;;;;;;;;;4.00;3.00;;;;;25.10;34.33;101253.63;5066843;28;45419;-79
2022/07/13 03:36:02;;;;;;;;;2.75;2.75;;;;;24.98;34.77;101232.88;5059705;28;45492;-80
2022/07/13 03:38:27;;;;;;;;;2.50;2.50;;;;;25.12;34.96;101264.34;5060752;28;46081;-80
2022/07/13 03:40:52;;;;;;;;;3.25;3.25;;;;;24.96;34.44;101238.38;5059479;28;45574;-79
2022/07/13 03:43:18;;;;;;;;;2.33;2.00;;;;;25.10;34.00;101260.84;5077203;28;45430;-80
2022/07/13 03:45:43;;;;;;;;;3.00;3.00;;;;;25.09;34.29;101262.69;5085073;27;45491;-80
2022/07/13 03:48:09;;;;;;;;;3.50;2.75;;;;;25.03;33.91;101256.88;5065079;27;45494;-78
2022/07/13 03:50:34;;;;;;;;;3.00;3.00;;;;;25.03;34.15;101257.72;5054839;28;45295;-79
2022/07/13 03:52:59;;;;;;;;;3.00;2.00;;;;;24.96;34.60;101249.19;5064171;28;45388;-78
2022/07/13 03:55:25;;;;;;;;;2.75;2.75;;;;;25.03;34.28;101267.69;5055921;27;45690;-79
2022/07/13 03:57:50;;;;;;;;;2.50;2.00;;;;;25.01;34.30;101259.69;5065003;28;45293;-79
2022/07/13 04:00:15;;;;;;;;;3.25;2.75;;;;;25.04;34.92;101264.00;5055268;28;45280;-78
2022/07/13 04:02:41;;;;;;;;;1.25;1.25;;;;;25.08;34.56;101268.22;5060377;28;45350;-80
2022/07/13 04:05:07;;;;;;;;;3.00;2.00;;;;;25.00;34.40;101258.78;5073239;28;45451;-79
2022/07/13 04:07:35;;;;;;;;;4.00;4.00;;;;;25.00;34.66;101264.19;5080244;28;46993;-80
2022/07/13 04:10:00;;;;;;;;;2.00;2.00;;;;;25.06;34.81;101265.63;5068258;28;45494;-78
2022/07/13 04:12:25;;;;;;;;;2.50;2.50;;;;;25.00;34.86;101256.09;5058402;28;45541;-79
2022/07/13 04:14:51;;;;;;;;;3.50;2.25;;;;;25.07;34.60;101274.59;5069943;28;45375;-80
2022/07/13 04:17:16;;;;;;;;;3.00;3.00;;;;;25.08;35.01;101270.91;5069262;27;45530;-79
2022/07/13 04:19:42;;;;;;;;;2.25;2.25;;;;;24.92;35.11;101239.56;5061282;28;45416;-80
2022/07/13 04:22:07;;;;;;;;;1.50;1.50;;;;;25.03;34.93;101251.47;5055306;28;45436;-80
2022/07/13 04:24:32;;;;;;;;;6.75;2.25;;;;;24.90;35.37;101230.72;5074033;28;45650;-80
2022/07/13 04:26:58;;;;;;;;;7.25;3.25;;;;;24.87;34.51;101230.91;5076655;28;45447;-78
2022/07/13 04:29:24;;;;;;;;;2.00;2.00;;;;;25.06;35.55;101256.66;5055695;28;45443;-80
2022/07/13 04:31:50;;;;;;;;;4.00;4.00;;;;;25.05;35.10;101258.47;5059230;28;45329;-80
2022/07/13 04:34:17;;;;;;;;;1.50;1.50;;;;;25.07;35.10;101252.97;5080721;28;45472;-80
2022/07/13 04:36:43;;;;;;;;;6.25;5.00;;;;;25.06;35.41;101248.53;5075937;28;45821;-79
2022/07/13 04:39:09;;;;;;;;;3.00;3.00;;;;;25.12;35.88;101257.06;5068573;28;45462;-80
2022/07/13 04:41:34;;;;;;;;;5.75;3.75;;;;;25.08;35.99;101254.69;5067908;28;45538;-80
2022/07/13 04:44:00;;;;;;;;;2.00;2.00;;;;;24.94;35.88;101228.63;5075765;28;45575;-80
2022/07/13 04:46:26;;;;;;;;;3.75;3.00;;;;;24.99;35.80;101234.56;5072061;28;46087;-80
2022/07/13 04:48:51;;;;;;;;;2.25;2.25;;;;;25.09;35.62;101240.22;5056837;28;45519;-80
2022/07/13 04:51:16;;;;;;;;;4.00;2.50;;;;;25.15;36.06;101256.84;5069390;28;45403;-79
2022/07/13 04:53:43;;;;;;;;;7.75;5.00;;;;;25.16;36.23;101246.94;5056665;28;45556;-80
2022/07/13 04:56:11;;;;;;;;;1.75;0.75;;;;;25.24;36.02;101263.47;5056739;28;45481;-80
2022/07/13 04:58:36;;;;;;;;;4.00;4.00;;;;;25.26;36.40;101256.09;5069139;28;45483;-79
2022/07/13 05:01:06;;;;;;;;;5.50;5.50;;;;;25.29;36.18;101264.00;5068502;28;45405;-80
2022/07/13 05:03:32;;;;;;;;;2.00;2.00;;;;;25.27;35.81;101256.97;5066817;28;45572;-81
2022/07/13 05:05:57;;;;;;;;;4.25;3.00;;;;;25.23;36.16;101240.06;5059015;28;45547;-79
2022/07/13 05:08:23;;;;;;;;;5.00;3.50;;;;;25.34;36.17;101260.97;5072100;27;45444;-80
2022/07/13 05:10:49;;;;;;;;;3.00;3.00;;;;;25.25;35.41;101234.56;5077007;27;45326;-80
2022/07/13 05:13:14;;;;;;;;;6.75;5.00;;;;;25.28;35.93;101243.34;5068758;28;45390;-79
2022/07/13 05:15:40;;;;;;;;;4.50;4.50;;;;;25.41;36.08;101262.28;5055745;28;45505;-79
2022/07/13 05:18:05;;;;;;;;;3.25;3.25;;;;;25.40;35.59;101273.22;5055371;28;45334;-79
2022/07/13 05:20:31;;;;;;;;;1.25;1.25;;;;;25.40;34.90;101263.25;5056012;28;45645;-79
2022/07/13 05:22:56;;;;;;;;;3.00;3.00;;;;;25.33;35.04;101246.59;5049683;28;45404;-80
2022/07/13 05:25:22;;;;;;;;;5.00;1.00;;;;;25.46;35.49;101264.66;5058501;28;45988;-80
2022/07/13 05:27:47;;;;;;;;;3.00;3.00;;;;;25.47;35.15;101256.41;5068378;28;45344;-79
2022/07/13 05:30:12;;;;;;;;;7.00;3.00;;;;;25.52;34.46;101248.84;5066941;28;45718;-80
2022/07/13 05:32:38;;;;;;;;;2.00;2.00;;;;;25.52;34.32;101245.25;5064864;28;45519;-80
2022/07/13 05:35:04;;;;;;;;;7.25;4.00;;;;;25.63;34.99;101263.41;5061855;27;45322;-80
2022/07/13 05:37:29;;;;;;;;;1.75;1.00;;;;;25.66;34.07;101261.38;5069193;28;45510;-79
2022/07/13 05:39:54;;;;;;;;;2.75;2.75;;;;;25.53;34.12;101244.28;5069791;28;45586;-80
2022/07/13 05:42:20;;;;;;;;;5.50;5.00;;;;;25.68;33.83;101266.69;5063155;28;45533;-79
2022/07/13 05:44:45;;;;;;;;;3.25;2.00;;;;;25.73;34.38;101271.75;5062642;28;45940;-80
2022/07/13 05:47:11;;;;;;;;;2.00;2.00;;;;;25.76;34.56;101279.66;5072468;28;45449;-79
2022/07/13 05:49:37;;;;;;;;;2.75;2.75;;;;;25.83;33.95;101279.06;5071256;27;45473;-80
2022/07/13 05:52:02;;;;;;;;;2.00;2.00;;;;;25.79;34.63;101265.88;5083290;27;45647;-80
2022/07/13 05:54:28;;;;;;;;;2.00;2.00;;;;;25.95;34.15;101281.84;5077379;27;47279;-80
2022/07/13 05:56:53;;;;;;;;;5.00;5.00;;;;;25.97;34.03;101282.63;5062679;28;45518;-79
2022/07/13 05:59:19;;;;;;;;;1.75;1.75;;;;;25.79;33.74;101239.66;5050351;28;45361;-80
2022/07/13 06:01:44;;;;;;;;;2.00;2.00;;;;;26.04;33.12;101270.38;5070381;28;45289;-80
2022/07/13 06:04:10;;;;;;;;;2.50;2.50;;;;;25.99;33.49;101262.56;5066397;27;46425;-79
2022/07/13 06:06:35;;;;;;;;;2.00;2.00;;;;;26.15;33.56;101281.28;5055827;28;45310;-80
2022/07/13 06:09:00;;;;;;;;;3.50;2.75;;;;;26.23;33.29;101275.28;5073890;28;45657;-79
2022/07/13 06:11:26;;;;;;;;;3.75;3.75;;;;;26.31;33.39;101277.41;5056225;28;45374;-80
2022/07/13 06:13:51;;;;;;;;;2.50;2.50;;;;;26.41;34.29;101278.44;5055101;28;46343;-80
2022/07/13 06:16:16;;;;;;;;;4.50;2.75;;;;;26.48;35.15;101277.00;5054486;28;45305;-80
2022/07/13 06:18:42;;;;;;;;;3.00;3.00;;;;;26.47;34.02;101252.72;5052832;28;45437;-80
2022/07/13 06:21:07;;;;;;;;;4.00;4.00;;;;;26.68;32.98;101286.34;5063450;28;45523;-80
2022/07/13 06:23:33;;;;;;;;;4.25;3.00;;;;;26.68;32.82;101280.91;5053056;28;47106;-80
2022/07/13 06:25:59;;;;;;;;;3.25;3.25;;;;;26.67;32.33;101273.75;5074396;28;45336;-80
2022/07/13 06:28:24;;;;;;;;;7.50;3.25;;;;;26.53;32.47;101265.81;5068724;28;45557;-80
2022/07/13 06:30:49;;;;;;;;;3.00;2.00;;;;;26.67;32.13;101276.47;5061673;28;45335;-80
2022/07/13 06:33:15;;;;;;;;;1.75;1.75;;;;;26.51;32.38;101256.91;5068305;28;45463;-81
2022/07/13 06:35:40;;;;;;;;;2.00;2.00;;;;;26.84;32.96;101290.56;5054429;27;45509;-78
2022/07/13 06:38:06;;;;;;;;;2.00;2.00;;;;;26.98;33.92;101276.81;5052948;28;45523;-78
2022/07/13 06:40:31;;;;;;;;;3.00;3.00;;;;;26.99;33.71;101250.53;5052981;28;45414;-79
2022/07/13 06:42:57;;;;;;;;;4.75;3.50;;;;;27.28;32.92;101278.94;5062182;28;46318;-79
2022/07/13 06:45:22;;;;;;;;;2.00;2.00;;;;;27.38;32.75;101262.81;5072277;28;45450;-79
2022/07/13 06:47:49;;;;;;;;;2.00;2.00;;;;;27.60;32.32;101277.34;5053152;28;45555;-80
2022/07/13 06:50:15;;;;;;;;;2.00;2.00;;;;;27.77;32.07;101285.00;5061336;28;45361;-78
2022/07/13 06:52:41;;;;;;;;;4.00;3.25;;;;;27.91;32.58;101280.28;5073453;28;45489;-77
2022/07/13 06:55:08;;;;;;;;;3.00;2.00;;;;;28.04;30.62;101278.28;5051760;28;45464;-79
2022/07/13 06:57:34;;;;;;;;;4.00;4.00;;;;;28.05;30.93;101280.00;5041426;28;45457;-79
2022/07/13 06:59:59;;;;;;;;;3.00;3.00;;;;;28.22;30.66;101277.75;5055849;28;45426;-77
2022/07/13 07:02:25;;;;;;;;;4.00;4.00;;;;;28.42;30.85;101279.63;5068508;28;45496;-80
2022/07/13 07:04:51;;;;;;;;;3.50;3.50;;;;;29.45;31.98;101275.31;5075826;27;45364;-79
2022/07/13 07:07:16;;;;;;;;;3.00;2.25;;;;;30.58;28.00;101276.88;5061417;28;45531;-79
2022/07/13 07:09:42;;;;;;;;;5.00;3.00;;;;;31.60;28.31;101267.16;5062591;28;45436;-80
2022/07/13 07:12:07;;;;;;;;;5.50;4.50;;;;;32.62;25.98;101245.97;5066603;28;45532;-79
2022/07/13 07:14:33;;;;;;;;;0.00;0.00;;;;;33.68;25.02;101272.31;5053432;28;45666;-80
2022/07/13 07:16:59;;;;;;;;;3.75;3.75;;;;;34.37;24.08;101269.41;5060627;28;45374;-79
2022/07/13 07:19:24;;;;;;;;;4.25;3.50;;;;;34.82;22.98;101254.34;5075130;27;45383;-79
2022/07/13 07:21:50;;;;;;;;;7.00;5.00;;;;;36.00;24.19;101251.84;5075259;28;46292;-79
2022/07/13 07:24:15;;;;;;;;;2.50;1.50;;;;;36.95;20.23;101261.59;5074299;28;45345;-78
2022/07/13 07:26:40;;;;;;;;;2.75;2.75;;;;;37.37;19.51;101260.09;5076110;28;45336;-78
2022/07/13 07:29:06;;;;;;;;;3.00;1.50;;;;;37.15;19.40;101259.13;5075511;28;45509;-78
2022/07/13 07:31:31;;;;;;;;;3.25;3.25;;;;;37.25;20.07;101276.25;5075592;27;45329;-80
2022/07/13 07:33:57;;;;;;;;;3.00;3.00;;;;;37.38;20.10;101277.47;5076171;28;45455;-78
2022/07/13 07:36:22;;;;;;;;;3.00;3.00;;;;;37.24;20.82;101260.75;5074656;28;45310;-78
2022/07/13 07:38:47;;;;;;;;;4.00;3.00;;;;;37.34;20.49;101272.34;5075579;28;45416;-78
2022/07/13 07:41:13;;;;;;;;;2.25;2.25;;;;;37.14;19.83;101269.28;5075927;27;46977;-80
2022/07/13 07:43:39;;;;;;;;;4.75;2.00;;;;;37.13;20.23;101281.34;5075908;27;45371;-78
2022/07/13 07:46:05;;;;;;;;;1.75;1.75;;;;;37.02;21.11;101253.41;5075821;27;45523;-79
2022/07/13 07:48:30;;;;;;;;;2.00;2.00;;;;;37.29;19.82;101266.56;5059011;27;45555;-79
2022/07/13 07:50:56;;;;;;;;;3.50;3.00;;;;;36.94;19.79;101252.47;5055040;28;46427;-79
2022/07/13 07:53:22;;;;;;;;;1.00;1.00;;;;;36.68;20.18;101260.28;5055135;28;45505;-79
2022/07/13 07:55:49;;;;;;;;;3.50;3.50;;;;;36.45;20.45;101259.25;5054997;28;45637;-78
2022/07/13 07:58:15;;;;;;;;;4.00;2.50;;;;;36.23;21.43;101255.47;5054184;28;45368;-79
2022/07/13 08:00:43;;;;;;;;;2.25;2.25;;;;;36.30;20.68;101266.63;5053659;28;46559;-78
2022/07/13 08:03:09;;;;;;;;;2.75;2.00;;;;;36.26;22.21;101257.88;5055233;28;45425;-79
2022/07/13 08:05:36;;;;;;;;;5.75;3.75;;;;;36.31;21.65;101262.00;5054326;28;45412;-79
2022/07/13 08:08:01;;;;;;;;;5.00;2.75;;;;;36.15;22.00;101257.41;5055265;28;45593;-80
2022/07/13 08:10:27;;;;;;;;;4.00;4.00;;;;;36.11;23.31;101251.44;5054996;28;45488;-78
2022/07/13 08:12:53;;;;;;;;;1.75;1.75;;;;;35.98;22.03;101257.53;5055679;28;45537;-79
2022/07/13 08:15:19;;;;;;;;;3.00;3.00;;;;;35.80;20.93;101265.22;5055522;28;45369;-80
2022/07/13 08:17:45;;;;;;;;;3.00;3.00;;;;;35.69;22.17;101266.44;5054992;28;45424;-79
2022/07/13 08:20:11;;;;;;;;;2.00;2.00;;;;;35.61;23.35;101250.84;5056882;28;46502;-79
2022/07/13 08:22:38;;;;;;;;;3.75;3.75;;;;;35.81;23.89;101259.53;5068973;28;45370;-80
2022/07/13 08:25:03;;;;;;;;;0.00;0.00;;;;;35.91;22.65;101257.41;5062146;28;45369;-80
2022/07/13 08:27:30;;;;;;;;;2.50;2.50;;;;;36.05;23.59;101249.44;5055998;28;45655;-80
2022/07/13 08:29:56;;;;;;;;;3.25;2.25;;;;;36.07;22.03;101259.19;5054773;28;45405;-79
2022/07/13 08:32:21;;;;;;;;;2.00;2.00;;;;;36.07;22.86;101258.34;5053770;28;45397;-78
2022/07/13 08:40:17;;;;;;;;;7.00;2.75;;;;;35.74;21.36;101266.75;5057077;28;45715;-80
2022/07/13 08:42:44;;;;;;;;;2.00;2.00;;;;;35.65;22.49;101263.22;5054900;28;45562;-79
2022/07/13 08:45:09;;;;;;;;;4.75;2.00;;;;;36.01;23.83;101261.81;5087245;27;45557;-79
2022/07/13 08:47:35;;;;;;;;;2.00;2.00;;;;;36.49;22.06;101258.88;5054445;28;45429;-80
2022/07/13 08:50:04;;;;;;;;;3.00;3.00;;;;;36.84;22.17;101251.91;5053748;28;45598;-79
2022/07/13 08:52:30;;;;;;;;;1.00;1.00;;;;;37.37;21.25;101246.34;5054065;28;45459;-80
2022/07/13 08:54:56;;;;;;;;;4.00;3.00;;;;;38.33;21.77;101250.84;5054548;28;45546;-80
2022/07/13 08:57:22;;;;;;;;;5.25;4.75;;;;;38.85;19.41;101244.06;5054953;28;45404;-79
2022/07/13 08:59:47;;;;;;;;;2.75;2.75;;;;;39.41;18.09;101253.34;5054405;28;46566;-80
2022/07/13 09:02:12;;;;;;;;;2.00;2.00;;;;;39.76;19.02;101247.75;5054386;28;45452;-78
2022/07/13 09:04:39;;;;;;;;;5.50;2.00;;;;;40.39;18.12;101244.72;5053908;28;45712;-78
2022/07/13 09:07:11;;;;;;;;;3.50;3.50;;;;;40.77;17.30;101233.00;5069196;28;45335;-78
2022/07/13 09:09:38;;;;;;;;;6.00;3.25;;;;;41.52;17.81;101240.91;5053727;28;45562;-78
2022/07/13 09:12:16;;;;;;;;;3.00;2.00;;;;;42.22;16.51;101242.03;5054210;28;46062;-78
2022/07/13 09:14:44;;;;;;;;;0.25;0.25;;;;;42.88;16.61;101235.06;5054661;28;45333;-79
2022/07/13 09:17:31;;;;;;;;;2.00;2.00;;;;;43.36;16.25;101240.94;5054188;28;45583;-78
2022/07/13 09:19:59;;;;;;;;;1.00;1.00;;;;;43.63;14.56;101239.53;5053422;28;46389;-79
2022/07/13 09:22:24;;;;;;;;;1.75;0.75;;;;;43.87;13.48;101230.44;5053448;28;45501;-78
2022/07/13 09:24:50;;;;;;;;;1.00;1.00;;;;;44.09;13.61;101239.09;5053960;28;45402;-78
2022/07/13 09:27:16;;;;;;;;;4.00;4.00;;;;;44.36;12.92;101242.31;5086953;27;45400;-78
2022/07/13 09:29:42;;;;;;;;;2.25;2.00;;;;;44.47;13.65;101232.28;5052560;28;48386;-79
2022/07/13 09:32:11;;;;;;;;;2.50;2.50;;;;;44.55;14.13;101229.13;5054410;28;45456;-79
2022/07/13 09:34:52;;;;;;;;;2.75;2.75;;;;;44.77;14.51;101234.97;5051944;28;45333;-79
2022/07/13 09:37:23;;;;;;;;;2.00;2.00;;;;;44.82;13.71;101235.06;5053160;28;45472;-79
2022/07/13 09:39:58;;;;;;;;;3.75;3.75;;;;;44.83;13.20;101234.00;5053139;28;45396;-78
2022/07/13 09:42:29;;;;;;;;;2.00;2.00;;;;;44.99;12.52;101229.63;5053855;28;45530;-79
2022/07/13 09:47:54;;;;;;;;;1.00;1.00;;;;;45.12;12.36;101230.47;5054973;28;45448;-80
2022/07/13 09:50:40;;;;;;;;;1.50;1.00;;;;;45.39;12.81;101230.75;5052920;28;45454;-78
2022/07/13 09:53:29;;;;;;;;;1.00;1.00;;;;;45.48;12.61;101234.00;5052996;28;45433;-79
2022/07/13 09:55:57;;;;;;;;;1.50;1.50;;;;;45.54;13.23;101244.16;5052890;28;45348;-80
2022/07/13 09:58:28;;;;;;;;;2.50;2.50;;;;;45.63;12.32;101225.97;5053225;28;45491;-79
2022/07/13 10:00:56;;;;;;;;;1.25;1.25;;;;;45.60;12.52;101234.81;5051338;28;47105;-80
2022/07/13 10:03:23;;;;;;;;;0.00;0.00;;;;;45.71;12.65;101230.28;5052979;28;45427;-79
2022/07/13 10:05:51;;;;;;;;;2.00;1.00;;;;;45.86;13.09;101229.72;5052878;28;45496;-80
2022/07/13 10:08:17;;;;;;;;;0.00;0.00;;;;;45.85;12.45;101219.69;5053491;28;45408;-79
2022/07/13 10:10:44;;;;;;;;;2.25;2.00;;;;;45.72;12.92;101232.81;5051204;28;46535;-79
2022/07/13 10:13:12;;;;;;;;;2.00;2.00;;;;;45.81;12.35;101226.84;5054246;28;45519;-79
2022/07/13 10:15:37;;;;;;;;;3.00;3.00;;;;;45.86;12.46;101219.44;5065287;28;45416;-79
2022/07/13 10:18:07;;;;;;;;;0.00;0.00;;;;;45.89;12.62;101223.69;5057419;28;45444;-79
2022/07/13 10:20:33;;;;;;;;;1.00;1.00;;;;;45.87;12.17;101226.72;5054887;28;45494;-80
2022/07/13 10:22:59;;;;;;;;;1.00;1.00;;;;;45.92;12.25;101231.53;5053411;28;45506;-79
2022/07/13 10:25:40;;;;;;;;;2.75;2.00;;;;;45.99;12.57;101223.84;5053306;28;45358;-79
2022/07/13 10:28:06;;;;;;;;;1.00;1.00;;;;;46.23;11.98;101234.88;5085986;27;45527;-79
2022/07/13 10:30:31;;;;;;;;;2.25;1.00;;;;;46.11;12.25;101232.97;5052697;28;46109;-79
2022/07/13 10:33:17;;;;;;;;;2.00;2.00;;;;;46.06;13.49;101224.53;5067715;28;45758;-79
2022/07/13 10:35:51;;;;;;;;;2.25;2.25;;;;;46.05;12.18;101222.81;5067624;28;45437;-79
2022/07/13 10:38:18;;;;;;;;;1.50;1.50;;;;;45.86;12.03;101226.94;5052563;28;46697;-79
2022/07/13 10:40:44;;;;;;;;;1.50;1.50;;;;;45.82;11.56;101207.06;5052830;28;46076;-79
2022/07/13 10:43:10;;;;;;;;;2.50;2.00;;;;;45.83;12.18;101217.16;5068465;28;45687;-80
2022/07/13 10:45:40;;;;;;;;;1.00;1.00;;;;;45.78;12.00;101210.59;5053445;28;45411;-79
2022/07/13 10:48:32;;;;;;;;;1.00;1.00;;;;;45.94;12.54;101216.22;5052666;28;45415;-78
2022/07/13 10:51:02;;;;;;;;;3.50;2.25;;;;;45.91;12.38;101222.31;5051737;28;45430;-79
2022/07/13 10:53:45;;;;;;;;;4.50;3.50;;;;;45.86;12.29;101216.66;5056261;28;45516;-80
2022/07/13 10:56:20;;;;;;;;;2.25;1.00;;;;;45.90;12.76;101222.56;5056254;28;45452;-78
2022/07/13 10:58:50;;;;;;;;;2.00;2.00;;;;;45.74;12.82;101204.69;5056061;28;45333;-80
2022/07/13 11:01:30;;;;;;;;;0.00;0.00;;;;;45.90;12.30;101217.84;5055902;28;45690;-80
2022/07/13 11:03:56;;;;;;;;;2.00;2.00;;;;;45.88;12.72;101216.38;5071052;28;45357;-79
2022/07/13 11:06:26;;;;;;;;;1.00;1.00;;;;;45.84;12.73;101216.03;5055505;28;45371;-79
2022/07/13 11:09:08;;;;;;;;;1.25;1.25;;;;;45.79;12.23;101212.28;5055894;28;45513;-79
2022/07/13 11:11:33;;;;;;;;;2.25;2.25;;;;;45.69;12.89;101216.59;5056230;28;46612;-79
2022/07/13 11:13:59;;;;;;;;;3.75;3.75;;;;;45.67;13.51;101213.19;5056088;28;45317;-79
2022/07/13 11:16:45;;;;;;;;;4.00;2.00;;;;;45.82;12.66;101218.22;5054672;28;45507;-79
2022/07/13 11:19:10;;;;;;;;;3.25;3.25;;;;;45.74;13.25;101208.28;5055878;28;45551;-79
2022/07/13 11:22:10;;;;;;;;;2.00;2.00;;;;;45.67;12.98;101209.56;5055599;28;45842;-78
2022/07/13 11:27:43;;;;;;;;;1.00;1.00;;;;;45.24;13.15;101209.81;5055723;28;45471;-78
2022/07/13 11:30:13;;;;;;;;;1.75;1.75;;;;;45.20;12.69;101199.41;5054903;28;45368;-79
2022/07/13 11:32:39;;;;;;;;;2.25;2.25;;;;;45.15;13.43;101202.09;5056121;28;45585;-79
2022/07/13 11:35:05;;;;;;;;;1.50;1.50;;;;;45.17;13.15;101199.91;5055159;28;45385;-79